YMML Airport Information

Runway Information
Runway 09 Length 7500 ft width 148 ft
Elevation 395 ft Threshold 0 ft Heading 94
Runway 27 Length 7500 ft Width 148 ft
Elevation 407 ft Threshold 0 ft Heading 274
Runway 16 Length 11998 ft width 197 ft
Elevation 432 ft Threshold 0 ft Heading 171
Runway 34 Length 11998 ft Width 197 ft
Elevation 330 ft Threshold 0 ft Heading 351
Airport Frequencies
Type APP Name APP Frequency 132 MHZ
Type ATIS Name ATIS Frequency 114.1 MHZ
Type CLD Name CLNC DEL Frequency 127.2 MHZ
Type DEP Name DEP Frequency 118.9 MHZ
Type GND Name GND Frequency 121.7 MHZ
Type TWR Name TWR Frequency 120.5 MHZ
Airport Navaids
Type NDB Name Bolinda Frequency 362 KHZ
Type NDB Name Epping Frequency 377 KHZ
Type VOR-DME Name Melbourne Frequency 114100 KHZ
Type NDB Name Rockdale Frequency 338 KHZ
Airport Weather Information & NOTAM
ADDS - METARS form results

(1124 UTC 23 May 2019)
Data provider http://aviationweather.gov/metar/data/
 
METAR text: YMML 231115Z 36024G35KT CAVOK 16/07 Q1020 FM1115 MOD/SEV TURB BLW 5000FT
Conditions at: YMML (MELBOURNE INTL A, AU) observed 1115 UTC 23 May 2019
Temperature: 16.0°C (61°F)
Dewpoint: 7.0°C (45°F) [RH = 55%]
Pressure (altimeter): 30.12 inches Hg (1020.0 mb)
Winds: from the N (360 degrees) at 28 MPH (24 knots; 12.3 m/s)
gusting to 40 MPH (35 knots; 18.0 m/s)
Visibility: 6 or more miles (10+ km)
Ceiling: ceiling and visibility are OK
Clouds: unknown
Weather: no significant weather observed at this time

METAR text: YMML 231100Z 36021KT CAVOK 16/07 Q1021 FM1100 MOD/SEV TURB BLW 5000FT
Conditions at: YMML (MELBOURNE INTL A, AU) observed 1100 UTC 23 May 2019
Temperature: 16.0°C (61°F)
Dewpoint: 7.0°C (45°F) [RH = 55%]
Pressure (altimeter): 30.15 inches Hg (1021.0 mb)
Winds: from the N (360 degrees) at 24 MPH (21 knots; 10.8 m/s)
Visibility: 6 or more miles (10+ km)
Ceiling: ceiling and visibility are OK
Clouds: unknown
Weather: no significant weather observed at this time

METAR text: YMML 231030Z 36020KT CAVOK 16/08 Q1021 FM1030 MOD/SEV TURB BLW 5000FT
Conditions at: YMML (MELBOURNE INTL A, AU) observed 1030 UTC 23 May 2019
Temperature: 16.0°C (61°F)
Dewpoint: 8.0°C (46°F) [RH = 59%]
Pressure (altimeter): 30.15 inches Hg (1021.0 mb)
Winds: from the N (360 degrees) at 23 MPH (20 knots; 10.3 m/s)
Visibility: 6 or more miles (10+ km)
Ceiling: ceiling and visibility are OK
Clouds: unknown
Weather: no significant weather observed at this time

Forecast for: AMD
Text: TAF AMD YMML 231116Z 2312/2418 36017G28KT CAVOK
Forecast period: 1200 UTC 23 May 2019 to 0000 UTC 24 May 2019
Forecast type: FROM: standard forecast or significant change
Winds: from the N (360 degrees) at 20 MPH (17 knots; 8.7 m/s)
gusting to 32 MPH (28 knots; 14.4 m/s)
Visibility: 6 or more miles 10+ km)
Ceiling: unknown
Clouds: missing
Weather: NSW  (no significant weather)
Text: FM240000 36020G36KT 9999 -SHRA SCT050 BKN090
Forecast period: 0000 to 0800 UTC 24 May 2019
Forecast type: FROM: standard forecast or significant change
Winds: from the N (360 degrees) at 23 MPH (20 knots; 10.3 m/s)
gusting to 41 MPH (36 knots; 18.5 m/s)
Visibility: 6 or more miles 10+ km)
Ceiling: 9000 feet AGL
Clouds: scattered clouds at 5000 feet AGL
broken clouds at 9000 feet AGL
Weather: -SHRA  (light rain showers)
Text: FM240800 35015G25KT 9999 SCT045
Forecast period: 0800 to 1200 UTC 24 May 2019
Forecast type: FROM: standard forecast or significant change
Winds: from the N (350 degrees) at 17 MPH (15 knots; 7.7 m/s)
gusting to 29 MPH (25 knots; 12.9 m/s)
Visibility: 6 or more miles 10+ km)
Ceiling: at least 12,000 feet AGL
Clouds: scattered clouds at 4500 feet AGL
Weather: no significant weather forecast for this period
Text: FM241200 34014KT CAVOK
Forecast period: 1200 to 1800 UTC 24 May 2019
Forecast type: FROM: standard forecast or significant change
Winds: from the NNW (340 degrees) at 16 MPH (14 knots; 7.2 m/s)
Visibility: 6 or more miles 10+ km)
Ceiling: unknown
Clouds: missing
Weather: NSW  (no significant weather)